sensor_id;sensor_type;location;lat;lon;timestamp;P1;durP1;ratioP1;P2;durP2;ratioP2
41721;SDS011;27407;24.142;-110.310;2024-01-10T00:02:21;10.43;;;1.73;;
41721;SDS011;27407;24.142;-110.310;2024-01-10T00:04:48;15.47;;;2.10;;
41721;SDS011;27407;24.142;-110.310;2024-01-10T00:07:15;14.70;;;1.47;;
41721;SDS011;27407;24.142;-110.310;2024-01-10T00:09:42;30.60;;;2.87;;
41721;SDS011;27407;24.142;-110.310;2024-01-10T00:12:08;16.40;;;1.73;;
41721;SDS011;27407;24.142;-110.310;2024-01-10T00:14:35;18.97;;;2.40;;
41721;SDS011;27407;24.142;-110.310;2024-01-10T00:17:01;16.23;;;2.57;;
41721;SDS011;27407;24.142;-110.310;2024-01-10T00:19:28;11.67;;;1.77;;
41721;SDS011;27407;24.142;-110.310;2024-01-10T00:21:55;20.60;;;1.97;;
41721;SDS011;27407;24.142;-110.310;2024-01-10T00:24:21;11.23;;;1.87;;
41721;SDS011;27407;24.142;-110.310;2024-01-10T00:26:48;17.63;;;1.70;;
41721;SDS011;27407;24.142;-110.310;2024-01-10T00:29:15;14.33;;;2.10;;
41721;SDS011;27407;24.142;-110.310;2024-01-10T00:31:41;12.13;;;1.97;;
41721;SDS011;27407;24.142;-110.310;2024-01-10T00:34:08;13.30;;;1.97;;
41721;SDS011;27407;24.142;-110.310;2024-01-10T00:36:34;19.73;;;2.60;;
41721;SDS011;27407;24.142;-110.310;2024-01-10T00:39:01;11.87;;;2.07;;
41721;SDS011;27407;24.142;-110.310;2024-01-10T00:41:28;23.57;;;2.00;;
41721;SDS011;27407;24.142;-110.310;2024-01-10T00:43:54;34.47;;;3.07;;
41721;SDS011;27407;24.142;-110.310;2024-01-10T00:46:21;16.40;;;2.70;;
41721;SDS011;27407;24.142;-110.310;2024-01-10T00:48:48;7.40;;;1.30;;
41721;SDS011;27407;24.142;-110.310;2024-01-10T00:51:14;19.67;;;2.00;;
41721;SDS011;27407;24.142;-110.310;2024-01-10T00:53:41;25.20;;;2.50;;
41721;SDS011;27407;24.142;-110.310;2024-01-10T00:56:07;22.00;;;3.00;;
41721;SDS011;27407;24.142;-110.310;2024-01-10T00:58:35;15.93;;;2.40;;
41721;SDS011;27407;24.142;-110.310;2024-01-10T01:01:01;14.93;;;1.87;;
41721;SDS011;27407;24.142;-110.310;2024-01-10T01:03:28;14.00;;;2.33;;
41721;SDS011;27407;24.142;-110.310;2024-01-10T01:05:55;18.73;;;2.37;;
41721;SDS011;27407;24.142;-110.310;2024-01-10T01:08:21;22.80;;;1.97;;
41721;SDS011;27407;24.142;-110.310;2024-01-10T01:10:48;21.40;;;1.93;;
41721;SDS011;27407;24.142;-110.310;2024-01-10T01:13:15;19.43;;;2.30;;
41721;SDS011;27407;24.142;-110.310;2024-01-10T01:15:41;19.50;;;1.87;;
41721;SDS011;27407;24.142;-110.310;2024-01-10T01:18:09;13.67;;;1.77;;
41721;SDS011;27407;24.142;-110.310;2024-01-10T01:20:37;11.83;;;1.57;;
41721;SDS011;27407;24.142;-110.310;2024-01-10T01:23:04;14.30;;;1.80;;
41721;SDS011;27407;24.142;-110.310;2024-01-10T01:25:31;21.50;;;2.17;;
41721;SDS011;27407;24.142;-110.310;2024-01-10T01:27:57;15.73;;;2.13;;
41721;SDS011;27407;24.142;-110.310;2024-01-10T01:30:27;10.77;;;1.33;;
41721;SDS011;27407;24.142;-110.310;2024-01-10T01:32:53;18.93;;;2.13;;
41721;SDS011;27407;24.142;-110.310;2024-01-10T01:35:20;23.67;;;1.57;;
41721;SDS011;27407;24.142;-110.310;2024-01-10T01:37:48;9.57;;;1.60;;
41721;SDS011;27407;24.142;-110.310;2024-01-10T01:40:14;20.47;;;1.60;;
41721;SDS011;27407;24.142;-110.310;2024-01-10T01:42:43;12.97;;;1.50;;
41721;SDS011;27407;24.142;-110.310;2024-01-10T01:45:13;13.80;;;1.67;;
41721;SDS011;27407;24.142;-110.310;2024-01-10T01:47:40;12.60;;;1.90;;
41721;SDS011;27407;24.142;-110.310;2024-01-10T01:50:07;19.23;;;1.70;;
41721;SDS011;27407;24.142;-110.310;2024-01-10T01:52:34;10.67;;;1.77;;
41721;SDS011;27407;24.142;-110.310;2024-01-10T01:55:02;20.03;;;1.90;;
41721;SDS011;27407;24.142;-110.310;2024-01-10T01:57:30;7.70;;;1.40;;
41721;SDS011;27407;24.142;-110.310;2024-01-10T01:59:57;10.73;;;1.43;;
41721;SDS011;27407;24.142;-110.310;2024-01-10T02:02:24;8.33;;;1.63;;
41721;SDS011;27407;24.142;-110.310;2024-01-10T02:04:51;18.37;;;1.93;;
41721;SDS011;27407;24.142;-110.310;2024-01-10T02:07:18;11.20;;;1.57;;
41721;SDS011;27407;24.142;-110.310;2024-01-10T02:09:44;13.90;;;1.80;;
41721;SDS011;27407;24.142;-110.310;2024-01-10T02:12:11;13.30;;;2.10;;
41721;SDS011;27407;24.142;-110.310;2024-01-10T02:14:39;13.30;;;1.63;;
41721;SDS011;27407;24.142;-110.310;2024-01-10T02:17:05;14.07;;;1.50;;
41721;SDS011;27407;24.142;-110.310;2024-01-10T02:19:33;11.47;;;1.83;;
41721;SDS011;27407;24.142;-110.310;2024-01-10T02:22:00;16.70;;;1.97;;
41721;SDS011;27407;24.142;-110.310;2024-01-10T02:24:28;11.27;;;1.57;;
41721;SDS011;27407;24.142;-110.310;2024-01-10T02:26:55;14.63;;;1.80;;
41721;SDS011;27407;24.142;-110.310;2024-01-10T02:29:22;11.73;;;1.73;;
41721;SDS011;27407;24.142;-110.310;2024-01-10T02:31:49;12.90;;;1.73;;
41721;SDS011;27407;24.142;-110.310;2024-01-10T02:34:16;24.87;;;2.00;;
41721;SDS011;27407;24.142;-110.310;2024-01-10T02:36:42;12.53;;;1.80;;
41721;SDS011;27407;24.142;-110.310;2024-01-10T02:39:09;10.57;;;1.70;;
41721;SDS011;27407;24.142;-110.310;2024-01-10T02:41:36;19.23;;;1.83;;
41721;SDS011;27407;24.142;-110.310;2024-01-10T02:44:03;12.87;;;1.20;;
41721;SDS011;27407;24.142;-110.310;2024-01-10T02:46:29;12.10;;;1.47;;
41721;SDS011;27407;24.142;-110.310;2024-01-10T02:48:56;11.50;;;1.83;;
41721;SDS011;27407;24.142;-110.310;2024-01-10T02:51:25;12.77;;;1.87;;
41721;SDS011;27407;24.142;-110.310;2024-01-10T02:53:52;27.60;;;3.30;;
41721;SDS011;27407;24.142;-110.310;2024-01-10T02:56:19;7.90;;;1.50;;
41721;SDS011;27407;24.142;-110.310;2024-01-10T02:58:45;11.73;;;1.57;;
41721;SDS011;27407;24.142;-110.310;2024-01-10T03:01:13;17.47;;;1.77;;
41721;SDS011;27407;24.142;-110.310;2024-01-10T03:03:40;16.03;;;2.00;;
41721;SDS011;27407;24.142;-110.310;2024-01-10T03:06:07;16.97;;;1.53;;
41721;SDS011;27407;24.142;-110.310;2024-01-10T03:08:34;17.07;;;1.93;;
41721;SDS011;27407;24.142;-110.310;2024-01-10T03:11:00;12.37;;;2.07;;
41721;SDS011;27407;24.142;-110.310;2024-01-10T03:13:27;14.47;;;2.13;;
41721;SDS011;27407;24.142;-110.310;2024-01-10T03:15:53;14.93;;;1.60;;
41721;SDS011;27407;24.142;-110.310;2024-01-10T03:18:20;14.83;;;1.40;;
41721;SDS011;27407;24.142;-110.310;2024-01-10T03:20:47;19.93;;;1.73;;
41721;SDS011;27407;24.142;-110.310;2024-01-10T03:23:13;13.83;;;1.97;;
41721;SDS011;27407;24.142;-110.310;2024-01-10T03:25:40;16.90;;;1.93;;
41721;SDS011;27407;24.142;-110.310;2024-01-10T03:28:06;10.87;;;2.17;;
41721;SDS011;27407;24.142;-110.310;2024-01-10T03:30:34;6.97;;;1.77;;
41721;SDS011;27407;24.142;-110.310;2024-01-10T03:33:00;10.63;;;1.77;;
41721;SDS011;27407;24.142;-110.310;2024-01-10T03:35:27;18.20;;;1.80;;
41721;SDS011;27407;24.142;-110.310;2024-01-10T03:37:53;28.00;;;3.03;;
41721;SDS011;27407;24.142;-110.310;2024-01-10T03:40:20;16.93;;;2.37;;
41721;SDS011;27407;24.142;-110.310;2024-01-10T03:42:47;17.30;;;2.03;;
41721;SDS011;27407;24.142;-110.310;2024-01-10T03:45:13;10.63;;;2.00;;
41721;SDS011;27407;24.142;-110.310;2024-01-10T03:47:42;22.67;;;2.73;;
41721;SDS011;27407;24.142;-110.310;2024-01-10T03:50:09;14.60;;;2.57;;
41721;SDS011;27407;24.142;-110.310;2024-01-10T03:52:36;13.03;;;2.07;;
41721;SDS011;27407;24.142;-110.310;2024-01-10T03:55:02;23.00;;;2.43;;
41721;SDS011;27407;24.142;-110.310;2024-01-10T03:57:29;20.27;;;2.73;;
41721;SDS011;27407;24.142;-110.310;2024-01-10T03:59:56;22.03;;;3.23;;
41721;SDS011;27407;24.142;-110.310;2024-01-10T04:02:22;20.30;;;2.40;;
41721;SDS011;27407;24.142;-110.310;2024-01-10T04:04:49;30.80;;;4.93;;
41721;SDS011;27407;24.142;-110.310;2024-01-10T04:07:16;34.30;;;6.03;;
41721;SDS011;27407;24.142;-110.310;2024-01-10T04:09:42;26.23;;;4.70;;
41721;SDS011;27407;24.142;-110.310;2024-01-10T04:12:09;27.67;;;4.83;;
41721;SDS011;27407;24.142;-110.310;2024-01-10T04:14:36;26.57;;;4.80;;
41721;SDS011;27407;24.142;-110.310;2024-01-10T04:17:03;22.73;;;3.27;;
41721;SDS011;27407;24.142;-110.310;2024-01-10T04:19:30;17.50;;;3.20;;
41721;SDS011;27407;24.142;-110.310;2024-01-10T04:21:57;12.67;;;2.37;;
41721;SDS011;27407;24.142;-110.310;2024-01-10T04:24:23;23.73;;;3.77;;
41721;SDS011;27407;24.142;-110.310;2024-01-10T04:26:50;30.67;;;3.30;;
41721;SDS011;27407;24.142;-110.310;2024-01-10T04:29:17;26.83;;;3.30;;
41721;SDS011;27407;24.142;-110.310;2024-01-10T04:31:43;13.43;;;2.17;;
41721;SDS011;27407;24.142;-110.310;2024-01-10T04:34:10;23.27;;;2.67;;
41721;SDS011;27407;24.142;-110.310;2024-01-10T04:36:37;15.77;;;1.83;;
41721;SDS011;27407;24.142;-110.310;2024-01-10T04:39:03;13.60;;;2.20;;
41721;SDS011;27407;24.142;-110.310;2024-01-10T04:41:30;11.60;;;2.27;;
41721;SDS011;27407;24.142;-110.310;2024-01-10T04:43:57;14.90;;;1.93;;
41721;SDS011;27407;24.142;-110.310;2024-01-10T04:46:23;14.77;;;2.37;;
41721;SDS011;27407;24.142;-110.310;2024-01-10T04:48:50;19.10;;;2.77;;
41721;SDS011;27407;24.142;-110.310;2024-01-10T04:51:17;19.30;;;4.00;;
41721;SDS011;27407;24.142;-110.310;2024-01-10T04:53:43;29.03;;;4.40;;
41721;SDS011;27407;24.142;-110.310;2024-01-10T04:56:10;31.33;;;3.37;;
41721;SDS011;27407;24.142;-110.310;2024-01-10T04:58:36;20.00;;;3.03;;
41721;SDS011;27407;24.142;-110.310;2024-01-10T05:01:03;16.97;;;2.50;;
41721;SDS011;27407;24.142;-110.310;2024-01-10T05:03:30;30.47;;;3.77;;
41721;SDS011;27407;24.142;-110.310;2024-01-10T05:05:57;31.40;;;3.23;;
41721;SDS011;27407;24.142;-110.310;2024-01-10T05:08:23;47.03;;;3.27;;
41721;SDS011;27407;24.142;-110.310;2024-01-10T05:10:51;24.03;;;3.20;;
41721;SDS011;27407;24.142;-110.310;2024-01-10T05:13:18;37.13;;;3.33;;
41721;SDS011;27407;24.142;-110.310;2024-01-10T05:15:44;21.63;;;2.83;;
41721;SDS011;27407;24.142;-110.310;2024-01-10T05:18:11;17.37;;;2.73;;
41721;SDS011;27407;24.142;-110.310;2024-01-10T05:20:38;13.47;;;2.20;;
41721;SDS011;27407;24.142;-110.310;2024-01-10T05:23:04;13.13;;;2.40;;
41721;SDS011;27407;24.142;-110.310;2024-01-10T05:25:31;16.97;;;2.37;;
41721;SDS011;27407;24.142;-110.310;2024-01-10T05:27:58;12.07;;;1.90;;
41721;SDS011;27407;24.142;-110.310;2024-01-10T05:30:24;18.63;;;2.40;;
41721;SDS011;27407;24.142;-110.310;2024-01-10T05:32:51;17.17;;;2.40;;
41721;SDS011;27407;24.142;-110.310;2024-01-10T05:35:17;20.87;;;3.30;;
41721;SDS011;27407;24.142;-110.310;2024-01-10T05:37:44;27.77;;;4.53;;
41721;SDS011;27407;24.142;-110.310;2024-01-10T05:40:11;64.57;;;7.53;;
41721;SDS011;27407;24.142;-110.310;2024-01-10T05:42:38;29.87;;;5.90;;
41721;SDS011;27407;24.142;-110.310;2024-01-10T05:45:05;18.10;;;4.47;;
41721;SDS011;27407;24.142;-110.310;2024-01-10T05:47:32;17.00;;;4.13;;
41721;SDS011;27407;24.142;-110.310;2024-01-10T05:49:58;22.77;;;2.93;;
41721;SDS011;27407;24.142;-110.310;2024-01-10T05:52:25;25.13;;;3.23;;
41721;SDS011;27407;24.142;-110.310;2024-01-10T05:54:52;17.77;;;2.70;;
41721;SDS011;27407;24.142;-110.310;2024-01-10T05:57:19;12.40;;;2.50;;
41721;SDS011;27407;24.142;-110.310;2024-01-10T05:59:46;22.20;;;3.03;;
41721;SDS011;27407;24.142;-110.310;2024-01-10T06:02:13;15.87;;;2.67;;
41721;SDS011;27407;24.142;-110.310;2024-01-10T06:04:41;14.60;;;1.97;;
41721;SDS011;27407;24.142;-110.310;2024-01-10T06:07:08;23.53;;;2.53;;
41721;SDS011;27407;24.142;-110.310;2024-01-10T06:09:35;22.47;;;2.50;;
41721;SDS011;27407;24.142;-110.310;2024-01-10T06:12:02;16.63;;;2.50;;
41721;SDS011;27407;24.142;-110.310;2024-01-10T06:14:29;15.27;;;2.57;;
41721;SDS011;27407;24.142;-110.310;2024-01-10T06:16:56;27.40;;;2.80;;
41721;SDS011;27407;24.142;-110.310;2024-01-10T06:19:25;16.93;;;2.87;;
41721;SDS011;27407;24.142;-110.310;2024-01-10T06:21:51;11.87;;;2.70;;
41721;SDS011;27407;24.142;-110.310;2024-01-10T06:24:19;15.40;;;3.07;;
41721;SDS011;27407;24.142;-110.310;2024-01-10T06:26:45;27.37;;;4.00;;
41721;SDS011;27407;24.142;-110.310;2024-01-10T06:29:12;34.10;;;4.77;;
41721;SDS011;27407;24.142;-110.310;2024-01-10T06:31:38;16.57;;;4.00;;
41721;SDS011;27407;24.142;-110.310;2024-01-10T06:34:05;18.97;;;4.50;;
41721;SDS011;27407;24.142;-110.310;2024-01-10T06:36:32;15.20;;;3.23;;
41721;SDS011;27407;24.142;-110.310;2024-01-10T06:38:58;17.73;;;3.50;;
41721;SDS011;27407;24.142;-110.310;2024-01-10T06:41:25;14.23;;;2.63;;
41721;SDS011;27407;24.142;-110.310;2024-01-10T06:43:51;20.40;;;3.93;;
41721;SDS011;27407;24.142;-110.310;2024-01-10T06:46:19;15.67;;;2.13;;
41721;SDS011;27407;24.142;-110.310;2024-01-10T06:48:46;13.90;;;1.83;;
41721;SDS011;27407;24.142;-110.310;2024-01-10T06:51:13;17.67;;;2.17;;
41721;SDS011;27407;24.142;-110.310;2024-01-10T06:53:40;17.33;;;2.53;;
41721;SDS011;27407;24.142;-110.310;2024-01-10T06:56:07;12.50;;;2.63;;
41721;SDS011;27407;24.142;-110.310;2024-01-10T06:58:35;8.17;;;1.60;;
41721;SDS011;27407;24.142;-110.310;2024-01-10T07:01:02;11.60;;;1.90;;
41721;SDS011;27407;24.142;-110.310;2024-01-10T07:03:31;15.90;;;2.17;;
41721;SDS011;27407;24.142;-110.310;2024-01-10T07:06:00;12.80;;;2.10;;
41721;SDS011;27407;24.142;-110.310;2024-01-10T07:08:26;11.73;;;1.80;;
41721;SDS011;27407;24.142;-110.310;2024-01-10T07:10:53;19.30;;;2.47;;
41721;SDS011;27407;24.142;-110.310;2024-01-10T07:13:21;18.20;;;1.87;;
41721;SDS011;27407;24.142;-110.310;2024-01-10T07:15:47;14.00;;;3.30;;
41721;SDS011;27407;24.142;-110.310;2024-01-10T07:18:16;11.17;;;1.80;;
41721;SDS011;27407;24.142;-110.310;2024-01-10T07:20:43;14.43;;;2.07;;
41721;SDS011;27407;24.142;-110.310;2024-01-10T07:23:10;13.80;;;1.90;;
41721;SDS011;27407;24.142;-110.310;2024-01-10T07:25:36;23.80;;;3.70;;
41721;SDS011;27407;24.142;-110.310;2024-01-10T07:28:03;15.47;;;2.17;;
41721;SDS011;27407;24.142;-110.310;2024-01-10T07:30:30;18.23;;;2.57;;
41721;SDS011;27407;24.142;-110.310;2024-01-10T07:32:58;19.93;;;2.13;;
41721;SDS011;27407;24.142;-110.310;2024-01-10T07:35:25;19.07;;;2.50;;
41721;SDS011;27407;24.142;-110.310;2024-01-10T07:37:52;14.73;;;1.73;;
41721;SDS011;27407;24.142;-110.310;2024-01-10T07:40:19;12.43;;;2.77;;
41721;SDS011;27407;24.142;-110.310;2024-01-10T07:42:47;18.73;;;2.20;;
41721;SDS011;27407;24.142;-110.310;2024-01-10T07:45:14;8.37;;;1.60;;
41721;SDS011;27407;24.142;-110.310;2024-01-10T07:47:41;11.90;;;2.27;;
41721;SDS011;27407;24.142;-110.310;2024-01-10T07:50:08;8.47;;;1.70;;
41721;SDS011;27407;24.142;-110.310;2024-01-10T07:52:39;16.70;;;2.00;;
41721;SDS011;27407;24.142;-110.310;2024-01-10T07:55:06;8.60;;;1.50;;
41721;SDS011;27407;24.142;-110.310;2024-01-10T07:57:33;10.40;;;1.90;;
41721;SDS011;27407;24.142;-110.310;2024-01-10T08:00:02;14.77;;;2.00;;
41721;SDS011;27407;24.142;-110.310;2024-01-10T08:02:38;15.70;;;1.80;;
41721;SDS011;27407;24.142;-110.310;2024-01-10T08:05:05;16.43;;;1.77;;
41721;SDS011;27407;24.142;-110.310;2024-01-10T08:07:36;14.13;;;1.80;;
41721;SDS011;27407;24.142;-110.310;2024-01-10T08:10:07;10.13;;;1.17;;
41721;SDS011;27407;24.142;-110.310;2024-01-10T08:12:35;11.40;;;1.87;;
41721;SDS011;27407;24.142;-110.310;2024-01-10T08:15:04;10.50;;;2.13;;
41721;SDS011;27407;24.142;-110.310;2024-01-10T08:17:34;12.77;;;1.90;;
41721;SDS011;27407;24.142;-110.310;2024-01-10T08:20:04;15.20;;;2.13;;
41721;SDS011;27407;24.142;-110.310;2024-01-10T08:22:31;14.07;;;2.13;;
41721;SDS011;27407;24.142;-110.310;2024-01-10T08:24:58;22.53;;;2.13;;
41721;SDS011;27407;24.142;-110.310;2024-01-10T08:27:25;17.20;;;2.87;;
41721;SDS011;27407;24.142;-110.310;2024-01-10T08:29:51;11.00;;;2.43;;
41721;SDS011;27407;24.142;-110.310;2024-01-10T08:32:18;17.13;;;2.47;;
41721;SDS011;27407;24.142;-110.310;2024-01-10T08:34:47;18.20;;;2.47;;
41721;SDS011;27407;24.142;-110.310;2024-01-10T08:37:14;11.77;;;2.30;;
41721;SDS011;27407;24.142;-110.310;2024-01-10T08:39:43;16.33;;;2.50;;
41721;SDS011;27407;24.142;-110.310;2024-01-10T08:42:12;22.27;;;2.83;;
41721;SDS011;27407;24.142;-110.310;2024-01-10T08:44:39;25.70;;;2.80;;
41721;SDS011;27407;24.142;-110.310;2024-01-10T08:47:05;15.60;;;2.80;;
41721;SDS011;27407;24.142;-110.310;2024-01-10T08:49:32;17.23;;;3.00;;
41721;SDS011;27407;24.142;-110.310;2024-01-10T08:51:58;15.77;;;2.37;;
41721;SDS011;27407;24.142;-110.310;2024-01-10T08:54:25;16.57;;;2.63;;
41721;SDS011;27407;24.142;-110.310;2024-01-10T08:56:52;18.23;;;4.23;;
41721;SDS011;27407;24.142;-110.310;2024-01-10T08:59:18;20.37;;;2.73;;
41721;SDS011;27407;24.142;-110.310;2024-01-10T09:01:45;22.53;;;3.30;;
41721;SDS011;27407;24.142;-110.310;2024-01-10T09:04:12;25.57;;;3.60;;
41721;SDS011;27407;24.142;-110.310;2024-01-10T09:06:38;19.43;;;3.27;;
41721;SDS011;27407;24.142;-110.310;2024-01-10T09:09:05;21.30;;;3.27;;
41721;SDS011;27407;24.142;-110.310;2024-01-10T09:11:32;21.33;;;3.27;;
41721;SDS011;27407;24.142;-110.310;2024-01-10T09:13:59;15.37;;;2.70;;
41721;SDS011;27407;24.142;-110.310;2024-01-10T09:16:26;10.13;;;1.90;;
41721;SDS011;27407;24.142;-110.310;2024-01-10T09:18:52;10.00;;;1.60;;
41721;SDS011;27407;24.142;-110.310;2024-01-10T09:21:22;18.03;;;2.40;;
41721;SDS011;27407;24.142;-110.310;2024-01-10T09:23:50;13.47;;;2.40;;
41721;SDS011;27407;24.142;-110.310;2024-01-10T09:26:17;10.30;;;2.03;;
41721;SDS011;27407;24.142;-110.310;2024-01-10T09:28:44;14.70;;;2.03;;
41721;SDS011;27407;24.142;-110.310;2024-01-10T09:31:10;21.00;;;2.70;;
41721;SDS011;27407;24.142;-110.310;2024-01-10T09:33:37;21.50;;;3.90;;
41721;SDS011;27407;24.142;-110.310;2024-01-10T09:36:04;27.77;;;7.00;;
41721;SDS011;27407;24.142;-110.310;2024-01-10T09:38:34;48.07;;;7.77;;
41721;SDS011;27407;24.142;-110.310;2024-01-10T09:41:04;33.10;;;7.30;;
41721;SDS011;27407;24.142;-110.310;2024-01-10T09:43:31;55.13;;;9.10;;
41721;SDS011;27407;24.142;-110.310;2024-01-10T09:46:01;40.37;;;9.20;;
41721;SDS011;27407;24.142;-110.310;2024-01-10T09:48:28;37.83;;;7.43;;
41721;SDS011;27407;24.142;-110.310;2024-01-10T09:50:56;49.17;;;7.93;;
41721;SDS011;27407;24.142;-110.310;2024-01-10T09:53:23;45.00;;;7.23;;
41721;SDS011;27407;24.142;-110.310;2024-01-10T09:55:52;31.97;;;5.57;;
41721;SDS011;27407;24.142;-110.310;2024-01-10T09:58:25;17.53;;;2.30;;
41721;SDS011;27407;24.142;-110.310;2024-01-10T10:00:52;22.37;;;2.67;;
41721;SDS011;27407;24.142;-110.310;2024-01-10T10:03:19;20.83;;;4.10;;
41721;SDS011;27407;24.142;-110.310;2024-01-10T10:05:46;17.03;;;4.60;;
41721;SDS011;27407;24.142;-110.310;2024-01-10T10:08:13;22.40;;;4.70;;
41721;SDS011;27407;24.142;-110.310;2024-01-10T10:10:41;17.30;;;4.10;;
41721;SDS011;27407;24.142;-110.310;2024-01-10T10:13:23;24.97;;;4.57;;
41721;SDS011;27407;24.142;-110.310;2024-01-10T10:16:03;17.97;;;3.93;;
41721;SDS011;27407;24.142;-110.310;2024-01-10T10:18:31;20.10;;;4.20;;
41721;SDS011;27407;24.142;-110.310;2024-01-10T10:21:10;19.43;;;4.13;;
41721;SDS011;27407;24.142;-110.310;2024-01-10T10:23:39;17.67;;;3.40;;
41721;SDS011;27407;24.142;-110.310;2024-01-10T10:26:17;18.80;;;3.77;;
41721;SDS011;27407;24.142;-110.310;2024-01-10T10:28:47;20.93;;;2.80;;
41721;SDS011;27407;24.142;-110.310;2024-01-10T10:31:15;16.83;;;2.83;;
41721;SDS011;27407;24.142;-110.310;2024-01-10T10:33:43;15.80;;;2.50;;
41721;SDS011;27407;24.142;-110.310;2024-01-10T10:36:14;12.07;;;2.40;;
41721;SDS011;27407;24.142;-110.310;2024-01-10T10:38:40;16.57;;;2.77;;
41721;SDS011;27407;24.142;-110.310;2024-01-10T10:41:07;16.00;;;2.67;;
41721;SDS011;27407;24.142;-110.310;2024-01-10T10:43:37;8.60;;;2.10;;
41721;SDS011;27407;24.142;-110.310;2024-01-10T10:46:05;35.77;;;3.30;;
41721;SDS011;27407;24.142;-110.310;2024-01-10T10:48:42;25.10;;;2.20;;
41721;SDS011;27407;24.142;-110.310;2024-01-10T10:54:06;19.97;;;2.27;;
41721;SDS011;27407;24.142;-110.310;2024-01-10T10:56:34;13.57;;;2.10;;
41721;SDS011;27407;24.142;-110.310;2024-01-10T10:59:02;12.00;;;1.87;;
41721;SDS011;27407;24.142;-110.310;2024-01-10T11:01:31;6.80;;;1.63;;
41721;SDS011;27407;24.142;-110.310;2024-01-10T11:03:58;14.53;;;1.73;;
41721;SDS011;27407;24.142;-110.310;2024-01-10T11:06:25;18.03;;;2.07;;
41721;SDS011;27407;24.142;-110.310;2024-01-10T11:08:58;14.37;;;1.80;;
41721;SDS011;27407;24.142;-110.310;2024-01-10T11:11:41;11.17;;;2.10;;
41721;SDS011;27407;24.142;-110.310;2024-01-10T11:25:15;14.57;;;2.10;;
41721;SDS011;27407;24.142;-110.310;2024-01-10T11:27:43;12.17;;;2.13;;
41721;SDS011;27407;24.142;-110.310;2024-01-10T11:30:11;17.27;;;2.80;;
41721;SDS011;27407;24.142;-110.310;2024-01-10T11:32:38;15.70;;;2.33;;
41721;SDS011;27407;24.142;-110.310;2024-01-10T11:35:04;13.20;;;2.20;;
41721;SDS011;27407;24.142;-110.310;2024-01-10T11:37:43;14.63;;;2.47;;
41721;SDS011;27407;24.142;-110.310;2024-01-10T11:40:13;14.13;;;2.33;;
41721;SDS011;27407;24.142;-110.310;2024-01-10T11:42:43;14.00;;;2.00;;
41721;SDS011;27407;24.142;-110.310;2024-01-10T11:47:56;12.90;;;2.80;;
41721;SDS011;27407;24.142;-110.310;2024-01-10T11:50:24;10.83;;;2.13;;
41721;SDS011;27407;24.142;-110.310;2024-01-10T11:52:54;11.37;;;1.97;;
41721;SDS011;27407;24.142;-110.310;2024-01-10T11:56:05;7.40;;;2.07;;
41721;SDS011;27407;24.142;-110.310;2024-01-10T11:58:17;9.77;;;2.10;;
41721;SDS011;27407;24.142;-110.310;2024-01-10T12:00:44;13.33;;;1.93;;
41721;SDS011;27407;24.142;-110.310;2024-01-10T12:03:11;7.47;;;1.73;;
41721;SDS011;27407;24.142;-110.310;2024-01-10T12:05:38;17.47;;;2.10;;
41721;SDS011;27407;24.142;-110.310;2024-01-10T12:08:06;10.20;;;1.80;;
41721;SDS011;27407;24.142;-110.310;2024-01-10T12:10:35;19.77;;;2.50;;
41721;SDS011;27407;24.142;-110.310;2024-01-10T12:13:03;8.80;;;1.37;;
41721;SDS011;27407;24.142;-110.310;2024-01-10T12:15:30;11.63;;;1.67;;
41721;SDS011;27407;24.142;-110.310;2024-01-10T12:17:56;10.20;;;1.53;;
41721;SDS011;27407;24.142;-110.310;2024-01-10T12:20:23;11.90;;;1.70;;
41721;SDS011;27407;24.142;-110.310;2024-01-10T12:22:50;9.17;;;2.00;;
41721;SDS011;27407;24.142;-110.310;2024-01-10T12:25:17;12.43;;;1.70;;
41721;SDS011;27407;24.142;-110.310;2024-01-10T12:27:45;10.77;;;1.97;;
41721;SDS011;27407;24.142;-110.310;2024-01-10T12:30:12;12.33;;;2.33;;
41721;SDS011;27407;24.142;-110.310;2024-01-10T12:32:38;10.83;;;1.33;;
41721;SDS011;27407;24.142;-110.310;2024-01-10T12:35:05;11.50;;;1.53;;
41721;SDS011;27407;24.142;-110.310;2024-01-10T12:37:33;13.30;;;1.43;;
41721;SDS011;27407;24.142;-110.310;2024-01-10T12:39:59;9.30;;;1.60;;
41721;SDS011;27407;24.142;-110.310;2024-01-10T12:42:26;8.37;;;1.10;;
41721;SDS011;27407;24.142;-110.310;2024-01-10T12:44:53;6.53;;;1.10;;
41721;SDS011;27407;24.142;-110.310;2024-01-10T12:47:20;7.53;;;1.50;;
41721;SDS011;27407;24.142;-110.310;2024-01-10T12:49:48;8.80;;;1.53;;
41721;SDS011;27407;24.142;-110.310;2024-01-10T12:52:14;15.97;;;2.20;;
41721;SDS011;27407;24.142;-110.310;2024-01-10T12:54:44;11.80;;;1.50;;
41721;SDS011;27407;24.142;-110.310;2024-01-10T12:57:11;9.90;;;1.60;;
41721;SDS011;27407;24.142;-110.310;2024-01-10T12:59:37;9.47;;;1.30;;
41721;SDS011;27407;24.142;-110.310;2024-01-10T13:02:04;6.77;;;1.30;;
41721;SDS011;27407;24.142;-110.310;2024-01-10T13:04:31;8.63;;;1.77;;
41721;SDS011;27407;24.142;-110.310;2024-01-10T13:06:58;12.27;;;2.10;;
41721;SDS011;27407;24.142;-110.310;2024-01-10T13:09:25;26.03;;;2.20;;
41721;SDS011;27407;24.142;-110.310;2024-01-10T13:11:52;14.03;;;2.37;;
41721;SDS011;27407;24.142;-110.310;2024-01-10T13:14:19;19.07;;;2.13;;
41721;SDS011;27407;24.142;-110.310;2024-01-10T13:16:46;15.50;;;1.83;;
41721;SDS011;27407;24.142;-110.310;2024-01-10T13:19:12;12.73;;;1.93;;
41721;SDS011;27407;24.142;-110.310;2024-01-10T13:21:40;29.60;;;2.70;;
41721;SDS011;27407;24.142;-110.310;2024-01-10T13:24:06;20.53;;;2.60;;
41721;SDS011;27407;24.142;-110.310;2024-01-10T13:26:33;13.93;;;2.17;;
41721;SDS011;27407;24.142;-110.310;2024-01-10T13:28:59;19.03;;;1.50;;
41721;SDS011;27407;24.142;-110.310;2024-01-10T13:31:28;17.70;;;1.87;;
41721;SDS011;27407;24.142;-110.310;2024-01-10T13:33:54;9.10;;;1.70;;
41721;SDS011;27407;24.142;-110.310;2024-01-10T13:36:21;18.03;;;1.60;;
41721;SDS011;27407;24.142;-110.310;2024-01-10T13:38:48;14.93;;;1.67;;
41721;SDS011;27407;24.142;-110.310;2024-01-10T13:41:14;26.80;;;3.30;;
41721;SDS011;27407;24.142;-110.310;2024-01-10T13:43:41;32.27;;;2.53;;
41721;SDS011;27407;24.142;-110.310;2024-01-10T13:46:07;12.97;;;2.30;;
41721;SDS011;27407;24.142;-110.310;2024-01-10T13:48:34;24.50;;;2.60;;
41721;SDS011;27407;24.142;-110.310;2024-01-10T13:51:01;13.00;;;1.67;;
41721;SDS011;27407;24.142;-110.310;2024-01-10T13:53:27;10.33;;;1.47;;
41721;SDS011;27407;24.142;-110.310;2024-01-10T13:55:54;10.60;;;1.97;;
41721;SDS011;27407;24.142;-110.310;2024-01-10T13:58:21;23.47;;;3.53;;
41721;SDS011;27407;24.142;-110.310;2024-01-10T14:00:49;13.00;;;1.40;;
41721;SDS011;27407;24.142;-110.310;2024-01-10T14:03:15;11.50;;;1.40;;
41721;SDS011;27407;24.142;-110.310;2024-01-10T14:05:42;7.00;;;1.30;;
41721;SDS011;27407;24.142;-110.310;2024-01-10T14:08:09;11.83;;;1.00;;
41721;SDS011;27407;24.142;-110.310;2024-01-10T14:10:36;7.27;;;1.20;;
41721;SDS011;27407;24.142;-110.310;2024-01-10T14:13:04;10.80;;;1.37;;
41721;SDS011;27407;24.142;-110.310;2024-01-10T14:15:31;13.07;;;1.40;;
41721;SDS011;27407;24.142;-110.310;2024-01-10T14:17:57;12.03;;;1.70;;